Portada
METAR-TAF:

METAR-TAF

Aeroports :

Tampico, Mèxic

latitud: 22-17N, longitud: 097-52W, altitud: 24 m

Observació

L'informe es va fer fa 1 hora i 10 minuts, a les 02:42 UTC
Vent 7 kt del Sud-Est
Temperatura 23°C
Humitat 83%
Pressió 1014 hPa
Visibilitat: 16.1 km
Cel clar

METAR: MMTM 060242Z E13007KT 10SM SKC 23/20 A2995 RMK SLP142 52018 991

Hora: 21:52 (03:52 UTC)

Pronòstic

L'informe es va fer fa 11 hores i 33 minuts, a les 16:19 UTC
Pronòstic vàlid del 05 a les 18 UTC al 06 a les 18 UTC
Vent 10 kt del Sud-Est
Visibilitat: 10 km
Cel clar
A partir de les 06 a les 1100 UTC
Vent kt del Nord
Visibilitat: 0.8 km
a una alçada de 200 ft
boira
A partir de les 06 a les 1500 UTC
Vent 10 kt del Est/Sud-Est
Visibilitat: 6.4 km
Núvols disperses a una alçada de 1500 ft
calitja

TAF: MMTM 051619Z 0518/0618 14010KT P6SM SKC FM061100 00000KT 1/2SM FG VV002 FM061500 12010KT 4SM HZ SCT015

Observacions i pronòstics meteorològics de més de 4000 aeroports (METAR i TAF).

Les estacions disponibles són els punts grocs i vermells al mapa.

Posi el ratolí al punt desitjat per veure el nom de l'estació.

Feu clic per veure les observacions i els pronòstics meteorològics.

Per canviar el mapa: feu clic els botons verds amb una creu de color negre per apropar; al botó verd amb un guió per allunyar la imatge; o en les fletxes verdes per a mapes adjacents.


METAR-TAF: